AirNav   Pilot Hours Calculator
 
 941 users online  

18MA Holy Family Hospital Heliport
Methuen, Massachusetts, USA

GOING TO METHUEN?


FAA INFORMATION EFFECTIVE 07 NOVEMBER 2019

Location

FAA Identifier: 18MA
Lat/Long: 42-43-42.5000N 071-10-09.8400W
42-43.708333N 071-10.164000W
42.7284722,-71.1694000
(estimated)
Elevation: 202 ft. / 62 m (estimated)
Variation: 16W (1990)
Time zone: UTC -5 (UTC -4 during Daylight Saving Time)
Zip code: 01844

Heliport Operations

Heliport use: Private use, MEDICAL USE.
Activation date: 01/1992
Control tower: no
ARTCC: BOSTON CENTER
FSS: BRIDGEPORT FLIGHT SERVICE STATION
Attendance: CONTINUOUS
Wind indicator: yes
Segmented circle: no

Heliport Communications

WX ASOS at LWM (2.1 nm E): PHONE 978-687-8017
WX ASOS at BVY (14 nm SE): PHONE 978-921-5042
WX AWOS-3PT at ASH (16 nm W): 125.1 (603-578-0473)
WX ASOS at BED (16 nm S): 124.6 (781-274-9733)
WX ASOS at MHT (17 nm NW): 119.55 (603-621-1766)

Nearby radio navigation aids

VOR radial/distance  VOR name  Freq  Var
LWMr273/3.4LAWRENCE VOR/DME112.5015W
MHTr149/12.2MANCHESTER VOR/DME114.4015W
BOSr356/23.6BOSTON VOR/DME112.7016W
PSMr231/26.0PEASE VOR/DME116.5016W
CONr164/34.4CONCORD VOR/DME112.9015W

 
NDB name  Hdg/Dist  Freq  Var  ID
SHAKER HILL017/16.425116WSKR ... -.- .-.
ROLLINS223/33.126016WESG . ... --.

Heliport Services

Runway Information

Helipad H1

Dimensions: 40 x 40 ft. / 12 x 12 m
Surface: concrete, in good condition
Latitude: 42-43.708333N
Longitude: 071-10.164000W
Elevation: 202.0 ft.
Traffic pattern: leftleft

Heliport Ownership and Management from official FAA records

Ownership: Privately-owned
Owner: HOLY FAMILY HOSPITAL
70 EAST ST
METHUEN, MA 01844
Phone 978-687-0151
Manager: RICHARD ROUSSEAU
70 EAST ST
METHUEN, MA 01844
Phone 978-687-0151
ARLENE CHAMPEY 978-687-0156 EXT 2594 FACILITY MANAGER: KYLIEGH KRIENER 978-971-7078 KYLEIGH.KRIENER@STEWARD.ORG

Additional Remarks

A52-H1 63 FT BLDG 140 FT N.
FOR CD CTC BOSTON APCH AT 603-594-5554.

Instrument Procedures

There are no published instrument procedures at 18MA.

Some nearby airports with instrument procedures:

KLWM - Lawrence Municipal Airport (2 nm E)
KBVY - Beverly Regional Airport (14 nm SE)
KASH - Boire Field Airport (16 nm W)
KBED - Laurence G Hanscom Field Airport (16 nm S)
KMHT - Manchester Airport (17 nm NW)
 
Loc | Ops | Rwys | IFR | FBO | Links
Com | Nav | Svcs | Stats | Notes
Area around 18MA (Holy Family Hospital Heliport)
 
Road maps at: MapQuest Bing Google
 
Aerial photo
No photo
 
Sectional chart

 
Airport distance calculator
Flying to Holy Family Hospital Heliport? Find the distance to fly.

From to 18MA

Sunrise and sunset
Times for 12-Nov-2019
 Local
(UTC-5)
 Zulu
(UTC)
Morning civil twilight06:0311:03
Sunrise06:3411:34
Sunset16:2421:24
Evening civil twilight16:5421:54

Current date and time
Zulu (UTC)  13-Nov-2019 02:25:02
Local (UTC-5)  12-Nov-2019 21:25:02
 
METAR
KLWM 
2nm SE 
130154Z 31012G22KT 280V340 10SM FEW046 M04/M13 A2998 RMK AO2 SLP152 T10391133
KBVY 
14nm SE 
130153Z AUTO 30015G25KT 10SM CLR M02/M13 A2995 RMK AO2 SLP138 T10221128
KASH 
15nm W 
130156Z 30015G25KT 10SM CLR M04/M13 A2998 RMK AO2 PK WND 32030/0059 SLP160 T10441128
KBED 
17nm S 
130151Z 29017G25KT 10SM FEW040 OVC200 M02/M11 A2996 RMK AO2 SLP160 T10221111
KMHT 
17nm NW 
130153Z 29016G28KT 10SM FEW030 SCT250 M04/M14 A2996 RMK AO2 PK WND 29032/0120 SLP165 T10441144
TAF
KBED 
17nm S 
121927Z 1219/1318 31012KT P6SM BKN017 OVC050 FM122100 30011G24KT 6SM -RASN OVC050 FM122300 30012G28KT P6SM BKN050 FM130100 30014G30KT P6SM SKC FM130800 30014KT P6SM SKC
KMHT 
17nm NW 
121720Z 1218/1318 30010G18KT P6SM SCT025 BKN040 TEMPO 1218/1219 4SM -SHSN BR OVC025 FM130000 30010G20KT P6SM FEW050
NOTAMs
Click for the latest NOTAMs
NOTAMs are issued by the DoD/FAA and will open in a separate window not controlled by AirNav.

 

 
 

Would you like to see your business listed on this page?

 If your business provides an interesting product or service to pilots, flight crews, aircraft, or users of the Holy Family Hospital Heliport, you should consider listing it here.  To start the listing process, click on the button below
 
Add a business
 

Other Pages about Holy Family Hospital Heliport

Update a link
 
Copyright © AirNav, LLC. All rights reserved. Privacy Policy  Contact